sensor_id;sensor_type;location;lat;lon;timestamp;P1;durP1;ratioP1;P2;durP2;ratioP2
78686;SDS011;68002;52.310;6.990;2023-04-26T00:02:13;6.00;;;2.17;;
78686;SDS011;68002;52.310;6.990;2023-04-26T00:04:38;7.43;;;2.00;;
78686;SDS011;68002;52.310;6.990;2023-04-26T00:07:04;6.00;;;2.35;;
78686;SDS011;68002;52.310;6.990;2023-04-26T00:09:29;6.20;;;2.42;;
78686;SDS011;68002;52.310;6.990;2023-04-26T00:11:55;6.80;;;1.92;;
78686;SDS011;68002;52.310;6.990;2023-04-26T00:14:20;5.83;;;2.23;;
78686;SDS011;68002;52.310;6.990;2023-04-26T00:16:45;5.53;;;1.77;;
78686;SDS011;68002;52.310;6.990;2023-04-26T00:19:10;4.40;;;1.60;;
78686;SDS011;68002;52.310;6.990;2023-04-26T00:21:36;5.03;;;2.53;;
78686;SDS011;68002;52.310;6.990;2023-04-26T00:24:01;7.73;;;2.60;;
78686;SDS011;68002;52.310;6.990;2023-04-26T00:26:26;9.40;;;2.40;;
78686;SDS011;68002;52.310;6.990;2023-04-26T00:28:52;7.33;;;1.93;;
78686;SDS011;68002;52.310;6.990;2023-04-26T00:31:17;4.67;;;2.43;;
78686;SDS011;68002;52.310;6.990;2023-04-26T00:33:42;7.13;;;2.50;;
78686;SDS011;68002;52.310;6.990;2023-04-26T00:36:07;5.07;;;1.93;;
78686;SDS011;68002;52.310;6.990;2023-04-26T00:38:32;5.63;;;2.10;;
78686;SDS011;68002;52.310;6.990;2023-04-26T00:40:58;6.57;;;1.70;;
78686;SDS011;68002;52.310;6.990;2023-04-26T00:43:23;3.97;;;1.90;;
78686;SDS011;68002;52.310;6.990;2023-04-26T00:45:48;5.03;;;1.90;;
78686;SDS011;68002;52.310;6.990;2023-04-26T00:48:14;6.82;;;1.80;;
78686;SDS011;68002;52.310;6.990;2023-04-26T00:50:39;7.72;;;2.95;;
78686;SDS011;68002;52.310;6.990;2023-04-26T00:53:04;5.97;;;1.80;;
78686;SDS011;68002;52.310;6.990;2023-04-26T00:55:32;6.35;;;2.58;;
78686;SDS011;68002;52.310;6.990;2023-04-26T00:57:57;7.13;;;2.00;;
78686;SDS011;68002;52.310;6.990;2023-04-26T01:00:22;10.43;;;4.00;;
78686;SDS011;68002;52.310;6.990;2023-04-26T01:02:47;7.50;;;2.30;;
78686;SDS011;68002;52.310;6.990;2023-04-26T01:05:13;6.80;;;2.63;;
78686;SDS011;68002;52.310;6.990;2023-04-26T01:07:38;6.47;;;2.20;;
78686;SDS011;68002;52.310;6.990;2023-04-26T01:10:04;6.47;;;2.10;;
78686;SDS011;68002;52.310;6.990;2023-04-26T01:12:30;9.68;;;2.72;;
78686;SDS011;68002;52.310;6.990;2023-04-26T01:14:56;8.57;;;2.72;;
78686;SDS011;68002;52.310;6.990;2023-04-26T01:17:21;7.97;;;2.45;;
78686;SDS011;68002;52.310;6.990;2023-04-26T01:19:50;8.85;;;2.83;;
78686;SDS011;68002;52.310;6.990;2023-04-26T01:22:15;5.40;;;2.13;;
78686;SDS011;68002;52.310;6.990;2023-04-26T01:24:44;6.17;;;1.93;;
78686;SDS011;68002;52.310;6.990;2023-04-26T01:27:13;8.65;;;2.97;;
78686;SDS011;68002;52.310;6.990;2023-04-26T01:29:39;10.37;;;2.87;;
78686;SDS011;68002;52.310;6.990;2023-04-26T01:32:04;6.43;;;2.50;;
78686;SDS011;68002;52.310;6.990;2023-04-26T01:34:29;8.82;;;3.10;;
78686;SDS011;68002;52.310;6.990;2023-04-26T01:36:55;6.47;;;2.47;;
78686;SDS011;68002;52.310;6.990;2023-04-26T01:39:20;5.83;;;2.07;;
78686;SDS011;68002;52.310;6.990;2023-04-26T01:41:45;8.20;;;3.10;;
78686;SDS011;68002;52.310;6.990;2023-04-26T01:44:10;9.57;;;3.07;;
78686;SDS011;68002;52.310;6.990;2023-04-26T01:46:36;10.90;;;2.80;;
78686;SDS011;68002;52.310;6.990;2023-04-26T01:49:01;5.60;;;2.20;;
78686;SDS011;68002;52.310;6.990;2023-04-26T01:51:26;6.93;;;2.67;;
78686;SDS011;68002;52.310;6.990;2023-04-26T01:53:52;10.00;;;2.90;;
78686;SDS011;68002;52.310;6.990;2023-04-26T01:56:18;8.23;;;2.93;;
78686;SDS011;68002;52.310;6.990;2023-04-26T01:58:44;8.02;;;2.60;;
78686;SDS011;68002;52.310;6.990;2023-04-26T02:01:09;8.15;;;2.75;;
78686;SDS011;68002;52.310;6.990;2023-04-26T02:03:34;7.27;;;2.93;;
78686;SDS011;68002;52.310;6.990;2023-04-26T02:06:00;6.68;;;2.67;;
78686;SDS011;68002;52.310;6.990;2023-04-26T02:08:26;6.50;;;2.65;;
78686;SDS011;68002;52.310;6.990;2023-04-26T02:10:51;3.92;;;1.88;;
78686;SDS011;68002;52.310;6.990;2023-04-26T02:13:17;5.93;;;2.67;;
78686;SDS011;68002;52.310;6.990;2023-04-26T02:15:45;7.67;;;2.13;;
78686;SDS011;68002;52.310;6.990;2023-04-26T02:18:10;6.18;;;2.60;;
78686;SDS011;68002;52.310;6.990;2023-04-26T02:20:35;6.33;;;2.40;;
78686;SDS011;68002;52.310;6.990;2023-04-26T02:23:01;6.87;;;2.40;;
78686;SDS011;68002;52.310;6.990;2023-04-26T02:25:26;8.63;;;2.60;;
78686;SDS011;68002;52.310;6.990;2023-04-26T02:27:51;9.20;;;2.80;;
78686;SDS011;68002;52.310;6.990;2023-04-26T02:30:16;8.67;;;2.90;;
78686;SDS011;68002;52.310;6.990;2023-04-26T02:32:42;6.17;;;2.70;;
78686;SDS011;68002;52.310;6.990;2023-04-26T02:35:07;8.47;;;2.70;;
78686;SDS011;68002;52.310;6.990;2023-04-26T02:37:32;6.95;;;3.80;;
78686;SDS011;68002;52.310;6.990;2023-04-26T02:39:57;7.90;;;2.27;;
78686;SDS011;68002;52.310;6.990;2023-04-26T02:42:23;8.60;;;2.47;;
78686;SDS011;68002;52.310;6.990;2023-04-26T02:44:48;7.38;;;2.38;;
78686;SDS011;68002;52.310;6.990;2023-04-26T02:47:14;7.60;;;2.63;;
78686;SDS011;68002;52.310;6.990;2023-04-26T02:49:39;6.10;;;2.40;;
78686;SDS011;68002;52.310;6.990;2023-04-26T02:52:04;5.27;;;1.90;;
78686;SDS011;68002;52.310;6.990;2023-04-26T02:54:29;8.20;;;2.77;;
78686;SDS011;68002;52.310;6.990;2023-04-26T02:56:54;7.23;;;1.90;;
78686;SDS011;68002;52.310;6.990;2023-04-26T02:59:20;5.67;;;2.70;;
78686;SDS011;68002;52.310;6.990;2023-04-26T03:01:45;7.80;;;2.27;;
78686;SDS011;68002;52.310;6.990;2023-04-26T03:04:10;7.30;;;2.27;;
78686;SDS011;68002;52.310;6.990;2023-04-26T03:06:35;8.37;;;2.33;;
78686;SDS011;68002;52.310;6.990;2023-04-26T03:09:01;8.07;;;2.70;;
78686;SDS011;68002;52.310;6.990;2023-04-26T03:11:26;7.43;;;2.57;;
78686;SDS011;68002;52.310;6.990;2023-04-26T03:13:51;5.80;;;2.17;;
78686;SDS011;68002;52.310;6.990;2023-04-26T03:16:19;9.00;;;2.23;;
78686;SDS011;68002;52.310;6.990;2023-04-26T03:18:45;8.48;;;2.35;;
78686;SDS011;68002;52.310;6.990;2023-04-26T03:21:10;7.83;;;2.93;;
78686;SDS011;68002;52.310;6.990;2023-04-26T03:23:35;7.37;;;2.13;;
78686;SDS011;68002;52.310;6.990;2023-04-26T03:26:00;5.50;;;2.23;;
78686;SDS011;68002;52.310;6.990;2023-04-26T03:28:25;5.40;;;2.13;;
78686;SDS011;68002;52.310;6.990;2023-04-26T03:30:50;9.60;;;2.87;;
78686;SDS011;68002;52.310;6.990;2023-04-26T03:33:16;8.70;;;3.27;;
78686;SDS011;68002;52.310;6.990;2023-04-26T03:35:41;6.07;;;2.97;;
78686;SDS011;68002;52.310;6.990;2023-04-26T03:38:07;8.77;;;2.85;;
78686;SDS011;68002;52.310;6.990;2023-04-26T03:40:33;8.52;;;2.67;;
78686;SDS011;68002;52.310;6.990;2023-04-26T03:42:58;10.57;;;2.93;;
78686;SDS011;68002;52.310;6.990;2023-04-26T03:45:23;9.40;;;2.93;;
78686;SDS011;68002;52.310;6.990;2023-04-26T03:47:48;6.97;;;3.30;;
78686;SDS011;68002;52.310;6.990;2023-04-26T03:50:13;6.03;;;2.40;;
78686;SDS011;68002;52.310;6.990;2023-04-26T03:52:39;8.23;;;2.70;;
78686;SDS011;68002;52.310;6.990;2023-04-26T03:55:04;8.87;;;2.73;;
78686;SDS011;68002;52.310;6.990;2023-04-26T03:57:30;9.02;;;3.38;;
78686;SDS011;68002;52.310;6.990;2023-04-26T03:59:55;6.87;;;2.70;;
78686;SDS011;68002;52.310;6.990;2023-04-26T04:02:20;6.60;;;2.57;;
78686;SDS011;68002;52.310;6.990;2023-04-26T04:04:45;6.27;;;2.40;;
78686;SDS011;68002;52.310;6.990;2023-04-26T04:07:10;9.63;;;3.70;;
78686;SDS011;68002;52.310;6.990;2023-04-26T04:09:36;5.47;;;2.67;;
78686;SDS011;68002;52.310;6.990;2023-04-26T04:12:01;5.00;;;2.10;;
78686;SDS011;68002;52.310;6.990;2023-04-26T04:14:26;6.23;;;3.00;;
78686;SDS011;68002;52.310;6.990;2023-04-26T04:16:51;9.50;;;3.20;;
78686;SDS011;68002;52.310;6.990;2023-04-26T04:19:17;8.87;;;2.97;;
78686;SDS011;68002;52.310;6.990;2023-04-26T04:21:42;8.10;;;2.90;;
78686;SDS011;68002;52.310;6.990;2023-04-26T04:24:07;6.33;;;2.53;;
78686;SDS011;68002;52.310;6.990;2023-04-26T04:26:33;8.37;;;2.43;;
78686;SDS011;68002;52.310;6.990;2023-04-26T04:28:58;7.60;;;3.07;;
78686;SDS011;68002;52.310;6.990;2023-04-26T04:31:23;7.17;;;2.63;;
78686;SDS011;68002;52.310;6.990;2023-04-26T04:33:48;8.03;;;2.47;;
78686;SDS011;68002;52.310;6.990;2023-04-26T04:36:14;7.13;;;3.23;;
78686;SDS011;68002;52.310;6.990;2023-04-26T04:38:39;5.70;;;2.17;;
78686;SDS011;68002;52.310;6.990;2023-04-26T04:41:04;8.43;;;3.10;;
78686;SDS011;68002;52.310;6.990;2023-04-26T04:43:29;8.20;;;3.33;;
78686;SDS011;68002;52.310;6.990;2023-04-26T04:45:54;9.70;;;3.97;;
78686;SDS011;68002;52.310;6.990;2023-04-26T04:48:20;9.00;;;3.40;;
78686;SDS011;68002;52.310;6.990;2023-04-26T04:50:45;8.80;;;2.73;;
78686;SDS011;68002;52.310;6.990;2023-04-26T04:53:10;7.10;;;2.78;;
78686;SDS011;68002;52.310;6.990;2023-04-26T04:55:35;6.43;;;2.87;;
78686;SDS011;68002;52.310;6.990;2023-04-26T04:58:01;8.23;;;2.50;;
78686;SDS011;68002;52.310;6.990;2023-04-26T05:00:27;7.93;;;3.47;;
78686;SDS011;68002;52.310;6.990;2023-04-26T05:02:53;7.07;;;3.22;;
78686;SDS011;68002;52.310;6.990;2023-04-26T05:05:18;6.17;;;3.23;;
78686;SDS011;68002;52.310;6.990;2023-04-26T05:07:43;6.57;;;3.60;;
78686;SDS011;68002;52.310;6.990;2023-04-26T05:10:08;6.87;;;4.07;;
78686;SDS011;68002;52.310;6.990;2023-04-26T05:12:34;8.75;;;3.03;;
78686;SDS011;68002;52.310;6.990;2023-04-26T05:14:59;7.70;;;2.87;;
78686;SDS011;68002;52.310;6.990;2023-04-26T05:17:25;6.32;;;2.30;;
78686;SDS011;68002;52.310;6.990;2023-04-26T05:19:50;8.47;;;3.53;;
78686;SDS011;68002;52.310;6.990;2023-04-26T05:22:15;10.93;;;3.20;;
78686;SDS011;68002;52.310;6.990;2023-04-26T05:24:40;10.27;;;2.93;;
78686;SDS011;68002;52.310;6.990;2023-04-26T05:27:05;10.00;;;3.37;;
78686;SDS011;68002;52.310;6.990;2023-04-26T05:29:31;9.97;;;3.00;;
78686;SDS011;68002;52.310;6.990;2023-04-26T05:31:56;8.33;;;3.30;;
78686;SDS011;68002;52.310;6.990;2023-04-26T05:34:22;8.77;;;3.07;;
78686;SDS011;68002;52.310;6.990;2023-04-26T05:36:47;8.43;;;2.90;;
78686;SDS011;68002;52.310;6.990;2023-04-26T05:39:12;6.40;;;3.13;;
78686;SDS011;68002;52.310;6.990;2023-04-26T05:41:38;6.43;;;2.33;;
78686;SDS011;68002;52.310;6.990;2023-04-26T05:44:03;8.50;;;3.10;;
78686;SDS011;68002;52.310;6.990;2023-04-26T05:46:28;9.80;;;3.20;;
78686;SDS011;68002;52.310;6.990;2023-04-26T05:48:53;6.10;;;2.60;;
78686;SDS011;68002;52.310;6.990;2023-04-26T05:51:19;6.80;;;2.50;;
78686;SDS011;68002;52.310;6.990;2023-04-26T05:53:45;9.27;;;3.03;;
78686;SDS011;68002;52.310;6.990;2023-04-26T05:56:10;7.30;;;3.10;;
78686;SDS011;68002;52.310;6.990;2023-04-26T05:58:35;6.37;;;2.90;;
78686;SDS011;68002;52.310;6.990;2023-04-26T06:01:00;8.47;;;3.10;;
78686;SDS011;68002;52.310;6.990;2023-04-26T06:03:25;7.30;;;2.53;;
78686;SDS011;68002;52.310;6.990;2023-04-26T06:05:51;7.67;;;2.80;;
78686;SDS011;68002;52.310;6.990;2023-04-26T06:08:16;5.33;;;2.23;;
78686;SDS011;68002;52.310;6.990;2023-04-26T06:10:41;6.50;;;2.43;;
78686;SDS011;68002;52.310;6.990;2023-04-26T06:13:06;6.20;;;2.43;;
78686;SDS011;68002;52.310;6.990;2023-04-26T06:15:31;5.63;;;1.80;;
78686;SDS011;68002;52.310;6.990;2023-04-26T06:17:57;5.83;;;2.33;;
78686;SDS011;68002;52.310;6.990;2023-04-26T06:20:22;3.63;;;1.93;;
78686;SDS011;68002;52.310;6.990;2023-04-26T06:22:47;7.13;;;1.80;;
78686;SDS011;68002;52.310;6.990;2023-04-26T06:25:12;4.63;;;2.17;;
78686;SDS011;68002;52.310;6.990;2023-04-26T06:27:38;3.23;;;1.40;;
78686;SDS011;68002;52.310;6.990;2023-04-26T06:30:04;6.83;;;1.80;;
78686;SDS011;68002;52.310;6.990;2023-04-26T06:32:30;3.80;;;1.90;;
78686;SDS011;68002;52.310;6.990;2023-04-26T06:34:55;3.70;;;1.63;;
78686;SDS011;68002;52.310;6.990;2023-04-26T06:37:20;4.50;;;1.30;;
78686;SDS011;68002;52.310;6.990;2023-04-26T06:39:45;4.43;;;1.17;;
78686;SDS011;68002;52.310;6.990;2023-04-26T06:42:11;2.13;;;0.97;;
78686;SDS011;68002;52.310;6.990;2023-04-26T06:44:36;3.40;;;1.07;;
78686;SDS011;68002;52.310;6.990;2023-04-26T06:47:01;3.87;;;1.20;;
78686;SDS011;68002;52.310;6.990;2023-04-26T06:49:26;3.27;;;1.30;;
78686;SDS011;68002;52.310;6.990;2023-04-26T06:51:51;3.97;;;2.20;;
78686;SDS011;68002;52.310;6.990;2023-04-26T06:54:17;4.13;;;1.17;;
78686;SDS011;68002;52.310;6.990;2023-04-26T06:56:43;2.28;;;1.10;;
78686;SDS011;68002;52.310;6.990;2023-04-26T06:59:08;3.75;;;1.23;;
78686;SDS011;68002;52.310;6.990;2023-04-26T07:01:34;5.23;;;1.23;;
78686;SDS011;68002;52.310;6.990;2023-04-26T07:03:59;2.33;;;0.98;;
78686;SDS011;68002;52.310;6.990;2023-04-26T07:06:25;2.70;;;1.40;;
78686;SDS011;68002;52.310;6.990;2023-04-26T07:08:51;3.40;;;1.63;;
78686;SDS011;68002;52.310;6.990;2023-04-26T07:11:16;14.27;;;5.32;;
78686;SDS011;68002;52.310;6.990;2023-04-26T07:13:41;3.67;;;1.10;;
78686;SDS011;68002;52.310;6.990;2023-04-26T07:16:07;4.13;;;1.23;;
78686;SDS011;68002;52.310;6.990;2023-04-26T07:18:32;3.20;;;1.43;;
78686;SDS011;68002;52.310;6.990;2023-04-26T07:20:57;3.67;;;0.97;;
78686;SDS011;68002;52.310;6.990;2023-04-26T07:23:22;3.27;;;0.73;;
78686;SDS011;68002;52.310;6.990;2023-04-26T07:25:48;3.60;;;1.33;;
78686;SDS011;68002;52.310;6.990;2023-04-26T07:28:13;3.88;;;1.88;;
78686;SDS011;68002;52.310;6.990;2023-04-26T07:30:38;2.97;;;0.83;;
78686;SDS011;68002;52.310;6.990;2023-04-26T07:33:03;2.90;;;0.67;;
78686;SDS011;68002;52.310;6.990;2023-04-26T07:35:28;3.67;;;1.20;;
78686;SDS011;68002;52.310;6.990;2023-04-26T07:37:54;2.93;;;1.00;;
78686;SDS011;68002;52.310;6.990;2023-04-26T07:40:19;3.50;;;1.40;;
78686;SDS011;68002;52.310;6.990;2023-04-26T07:42:44;4.37;;;1.20;;
78686;SDS011;68002;52.310;6.990;2023-04-26T07:45:09;6.83;;;3.00;;
78686;SDS011;68002;52.310;6.990;2023-04-26T07:47:35;4.28;;;1.15;;
78686;SDS011;68002;52.310;6.990;2023-04-26T07:50:01;2.80;;;1.42;;
78686;SDS011;68002;52.310;6.990;2023-04-26T07:52:26;3.17;;;1.13;;
78686;SDS011;68002;52.310;6.990;2023-04-26T07:54:51;1.77;;;0.80;;
78686;SDS011;68002;52.310;6.990;2023-04-26T07:57:16;5.13;;;1.40;;
78686;SDS011;68002;52.310;6.990;2023-04-26T07:59:41;3.90;;;1.97;;
78686;SDS011;68002;52.310;6.990;2023-04-26T08:02:07;5.00;;;1.20;;
78686;SDS011;68002;52.310;6.990;2023-04-26T08:04:32;3.97;;;1.30;;
78686;SDS011;68002;52.310;6.990;2023-04-26T08:06:58;6.18;;;1.48;;
78686;SDS011;68002;52.310;6.990;2023-04-26T08:09:23;3.63;;;1.52;;
78686;SDS011;68002;52.310;6.990;2023-04-26T08:11:48;4.53;;;1.67;;
78686;SDS011;68002;52.310;6.990;2023-04-26T08:14:14;3.60;;;1.43;;
78686;SDS011;68002;52.310;6.990;2023-04-26T08:16:39;4.97;;;1.80;;
78686;SDS011;68002;52.310;6.990;2023-04-26T08:19:04;4.20;;;1.40;;
78686;SDS011;68002;52.310;6.990;2023-04-26T08:21:29;3.47;;;1.47;;
78686;SDS011;68002;52.310;6.990;2023-04-26T08:23:54;7.30;;;1.60;;
78686;SDS011;68002;52.310;6.990;2023-04-26T08:26:20;7.00;;;3.43;;
78686;SDS011;68002;52.310;6.990;2023-04-26T08:28:45;5.73;;;1.70;;
78686;SDS011;68002;52.310;6.990;2023-04-26T08:31:10;3.57;;;1.97;;
78686;SDS011;68002;52.310;6.990;2023-04-26T08:33:35;5.73;;;1.83;;
78686;SDS011;68002;52.310;6.990;2023-04-26T08:36:00;5.03;;;2.03;;
78686;SDS011;68002;52.310;6.990;2023-04-26T08:38:26;5.47;;;2.03;;
78686;SDS011;68002;52.310;6.990;2023-04-26T08:40:51;4.10;;;2.57;;
78686;SDS011;68002;52.310;6.990;2023-04-26T08:43:19;4.38;;;1.77;;
78686;SDS011;68002;52.310;6.990;2023-04-26T08:45:44;5.00;;;1.70;;
78686;SDS011;68002;52.310;6.990;2023-04-26T08:48:10;4.25;;;1.98;;
78686;SDS011;68002;52.310;6.990;2023-04-26T08:50:36;4.75;;;1.60;;
78686;SDS011;68002;52.310;6.990;2023-04-26T08:53:03;5.65;;;1.77;;
78686;SDS011;68002;52.310;6.990;2023-04-26T08:55:29;4.15;;;1.70;;
78686;SDS011;68002;52.310;6.990;2023-04-26T08:57:55;4.47;;;1.73;;
78686;SDS011;68002;52.310;6.990;2023-04-26T09:00:21;5.28;;;1.60;;
78686;SDS011;68002;52.310;6.990;2023-04-26T09:02:50;4.00;;;2.22;;
78686;SDS011;68002;52.310;6.990;2023-04-26T09:05:16;5.15;;;1.73;;
78686;SDS011;68002;52.310;6.990;2023-04-26T09:07:43;7.88;;;1.55;;
78686;SDS011;68002;52.310;6.990;2023-04-26T09:10:10;4.40;;;1.58;;
78686;SDS011;68002;52.310;6.990;2023-04-26T09:12:36;4.97;;;0.93;;
78686;SDS011;68002;52.310;6.990;2023-04-26T09:15:03;4.78;;;1.40;;
78686;SDS011;68002;52.310;6.990;2023-04-26T09:17:30;4.90;;;1.15;;
78686;SDS011;68002;52.310;6.990;2023-04-26T09:19:57;4.75;;;1.70;;
78686;SDS011;68002;52.310;6.990;2023-04-26T09:22:33;4.93;;;1.02;;
78686;SDS011;68002;52.310;6.990;2023-04-26T09:25:03;7.55;;;1.45;;
78686;SDS011;68002;52.310;6.990;2023-04-26T09:27:33;4.75;;;1.15;;
78686;SDS011;68002;52.310;6.990;2023-04-26T09:32:42;6.85;;;2.13;;
78686;SDS011;68002;52.310;6.990;2023-04-26T09:35:19;3.70;;;1.42;;
78686;SDS011;68002;52.310;6.990;2023-04-26T09:37:51;4.90;;;1.42;;
78686;SDS011;68002;52.310;6.990;2023-04-26T09:40:18;5.53;;;1.05;;
78686;SDS011;68002;52.310;6.990;2023-04-26T09:42:44;3.03;;;0.90;;
78686;SDS011;68002;52.310;6.990;2023-04-26T09:45:09;3.63;;;1.23;;
78686;SDS011;68002;52.310;6.990;2023-04-26T09:47:35;4.47;;;1.42;;
78686;SDS011;68002;52.310;6.990;2023-04-26T09:50:00;6.97;;;1.60;;
78686;SDS011;68002;52.310;6.990;2023-04-26T09:52:25;4.23;;;0.90;;
78686;SDS011;68002;52.310;6.990;2023-04-26T09:54:51;4.97;;;1.73;;
78686;SDS011;68002;52.310;6.990;2023-04-26T09:57:18;2.60;;;1.83;;
78686;SDS011;68002;52.310;6.990;2023-04-26T09:59:46;3.55;;;1.60;;
78686;SDS011;68002;52.310;6.990;2023-04-26T10:02:13;3.35;;;1.05;;
78686;SDS011;68002;52.310;6.990;2023-04-26T10:04:39;4.57;;;1.33;;
78686;SDS011;68002;52.310;6.990;2023-04-26T10:07:05;3.97;;;1.15;;
78686;SDS011;68002;52.310;6.990;2023-04-26T10:09:31;5.50;;;2.10;;
78686;SDS011;68002;52.310;6.990;2023-04-26T10:11:59;2.38;;;0.75;;
78686;SDS011;68002;52.310;6.990;2023-04-26T10:14:25;4.25;;;1.10;;
78686;SDS011;68002;52.310;6.990;2023-04-26T10:16:51;4.45;;;1.20;;
78686;SDS011;68002;52.310;6.990;2023-04-26T10:19:20;2.78;;;0.85;;
78686;SDS011;68002;52.310;6.990;2023-04-26T10:21:46;3.75;;;1.23;;
78686;SDS011;68002;52.310;6.990;2023-04-26T10:24:14;4.35;;;1.05;;
78686;SDS011;68002;52.310;6.990;2023-04-26T10:26:49;2.88;;;1.30;;
78686;SDS011;68002;52.310;6.990;2023-04-26T10:29:15;3.45;;;0.75;;
78686;SDS011;68002;52.310;6.990;2023-04-26T10:34:24;2.50;;;0.63;;
78686;SDS011;68002;52.310;6.990;2023-04-26T10:37:04;1.93;;;1.00;;
78686;SDS011;68002;52.310;6.990;2023-04-26T10:39:34;2.45;;;1.00;;
78686;SDS011;68002;52.310;6.990;2023-04-26T10:44:53;2.30;;;0.95;;
78686;SDS011;68002;52.310;6.990;2023-04-26T10:47:20;1.88;;;0.82;;
78686;SDS011;68002;52.310;6.990;2023-04-26T10:49:45;3.75;;;1.20;;
78686;SDS011;68002;52.310;6.990;2023-04-26T10:52:11;4.80;;;2.63;;
78686;SDS011;68002;52.310;6.990;2023-04-26T10:54:51;4.05;;;1.15;;
78686;SDS011;68002;52.310;6.990;2023-04-26T10:57:16;3.85;;;0.95;;
78686;SDS011;68002;52.310;6.990;2023-04-26T11:00:42;2.75;;;0.90;;
78686;SDS011;68002;52.310;6.990;2023-04-26T11:02:45;6.50;;;2.10;;
78686;SDS011;68002;52.310;6.990;2023-04-26T11:05:36;3.45;;;1.20;;
78686;SDS011;68002;52.310;6.990;2023-04-26T11:10:31;4.13;;;1.10;;
78686;SDS011;68002;52.310;6.990;2023-04-26T11:12:59;2.13;;;1.10;;
78686;SDS011;68002;52.310;6.990;2023-04-26T11:15:25;3.45;;;1.65;;
78686;SDS011;68002;52.310;6.990;2023-04-26T11:17:51;3.67;;;1.37;;
78686;SDS011;68002;52.310;6.990;2023-04-26T11:20:16;2.53;;;1.03;;
78686;SDS011;68002;52.310;6.990;2023-04-26T11:22:41;3.53;;;1.00;;
78686;SDS011;68002;52.310;6.990;2023-04-26T11:25:06;2.93;;;0.93;;
78686;SDS011;68002;52.310;6.990;2023-04-26T11:27:32;3.55;;;1.23;;
78686;SDS011;68002;52.310;6.990;2023-04-26T11:30:01;3.87;;;1.03;;
78686;SDS011;68002;52.310;6.990;2023-04-26T11:32:27;2.20;;;0.93;;
78686;SDS011;68002;52.310;6.990;2023-04-26T11:34:52;2.33;;;1.03;;
78686;SDS011;68002;52.310;6.990;2023-04-26T11:37:18;2.17;;;0.70;;
78686;SDS011;68002;52.310;6.990;2023-04-26T11:39:44;1.70;;;0.90;;
78686;SDS011;68002;52.310;6.990;2023-04-26T11:42:10;3.00;;;1.63;;
78686;SDS011;68002;52.310;6.990;2023-04-26T11:44:36;2.25;;;1.10;;
78686;SDS011;68002;52.310;6.990;2023-04-26T11:47:03;3.10;;;1.00;;
78686;SDS011;68002;52.310;6.990;2023-04-26T11:49:32;2.72;;;0.82;;
78686;SDS011;68002;52.310;6.990;2023-04-26T11:52:00;3.28;;;1.35;;
78686;SDS011;68002;52.310;6.990;2023-04-26T11:56:55;3.03;;;0.93;;
78686;SDS011;68002;52.310;6.990;2023-04-26T11:59:22;2.50;;;1.02;;
78686;SDS011;68002;52.310;6.990;2023-04-26T12:01:51;2.53;;;1.05;;
78686;SDS011;68002;52.310;6.990;2023-04-26T12:04:17;3.60;;;2.43;;
78686;SDS011;68002;52.310;6.990;2023-04-26T12:06:42;3.93;;;0.90;;
78686;SDS011;68002;52.310;6.990;2023-04-26T12:09:09;4.93;;;1.23;;
78686;SDS011;68002;52.310;6.990;2023-04-26T12:11:35;2.28;;;1.08;;
78686;SDS011;68002;52.310;6.990;2023-04-26T12:14:00;2.70;;;1.13;;
78686;SDS011;68002;52.310;6.990;2023-04-26T12:16:26;2.00;;;0.88;;
78686;SDS011;68002;52.310;6.990;2023-04-26T12:18:51;2.57;;;0.90;;
78686;SDS011;68002;52.310;6.990;2023-04-26T12:21:18;3.03;;;1.15;;
78686;SDS011;68002;52.310;6.990;2023-04-26T12:23:43;5.00;;;1.35;;
78686;SDS011;68002;52.310;6.990;2023-04-26T12:26:09;3.07;;;1.10;;
78686;SDS011;68002;52.310;6.990;2023-04-26T12:28:34;3.00;;;1.00;;
78686;SDS011;68002;52.310;6.990;2023-04-26T12:30:59;4.23;;;1.20;;
78686;SDS011;68002;52.310;6.990;2023-04-26T12:33:24;2.47;;;1.50;;
78686;SDS011;68002;52.310;6.990;2023-04-26T12:35:50;3.37;;;1.30;;
78686;SDS011;68002;52.310;6.990;2023-04-26T12:38:15;4.53;;;1.52;;
78686;SDS011;68002;52.310;6.990;2023-04-26T12:40:41;3.72;;;1.30;;
78686;SDS011;68002;52.310;6.990;2023-04-26T12:43:06;1.52;;;0.73;;
78686;SDS011;68002;52.310;6.990;2023-04-26T12:45:32;3.73;;;1.40;;
78686;SDS011;68002;52.310;6.990;2023-04-26T12:47:57;3.00;;;0.73;;
78686;SDS011;68002;52.310;6.990;2023-04-26T12:50:23;3.20;;;1.10;;
78686;SDS011;68002;52.310;6.990;2023-04-26T12:52:48;2.83;;;1.02;;
78686;SDS011;68002;52.310;6.990;2023-04-26T12:55:14;3.87;;;1.43;;
78686;SDS011;68002;52.310;6.990;2023-04-26T12:57:40;2.15;;;1.05;;
78686;SDS011;68002;52.310;6.990;2023-04-26T13:00:08;6.65;;;1.58;;
78686;SDS011;68002;52.310;6.990;2023-04-26T13:02:35;3.00;;;1.23;;
78686;SDS011;68002;52.310;6.990;2023-04-26T13:05:01;2.78;;;0.93;;
78686;SDS011;68002;52.310;6.990;2023-04-26T13:07:27;6.43;;;1.45;;
78686;SDS011;68002;52.310;6.990;2023-04-26T13:09:52;2.47;;;1.00;;
78686;SDS011;68002;52.310;6.990;2023-04-26T13:12:18;2.97;;;1.05;;
78686;SDS011;68002;52.310;6.990;2023-04-26T13:14:43;2.73;;;1.20;;
78686;SDS011;68002;52.310;6.990;2023-04-26T13:17:08;2.63;;;1.00;;
78686;SDS011;68002;52.310;6.990;2023-04-26T13:19:34;3.47;;;1.00;;
78686;SDS011;68002;52.310;6.990;2023-04-26T13:22:01;2.25;;;0.88;;
78686;SDS011;68002;52.310;6.990;2023-04-26T13:24:27;4.95;;;1.63;;
78686;SDS011;68002;52.310;6.990;2023-04-26T13:26:52;2.60;;;1.23;;
78686;SDS011;68002;52.310;6.990;2023-04-26T13:29:17;4.20;;;1.30;;
78686;SDS011;68002;52.310;6.990;2023-04-26T13:31:42;4.53;;;1.20;;
78686;SDS011;68002;52.310;6.990;2023-04-26T13:34:08;2.57;;;1.10;;
78686;SDS011;68002;52.310;6.990;2023-04-26T13:36:33;3.60;;;1.70;;
78686;SDS011;68002;52.310;6.990;2023-04-26T13:38:58;4.70;;;1.20;;
78686;SDS011;68002;52.310;6.990;2023-04-26T13:41:23;3.13;;;1.63;;
78686;SDS011;68002;52.310;6.990;2023-04-26T13:43:48;3.60;;;1.30;;
78686;SDS011;68002;52.310;6.990;2023-04-26T13:46:14;4.33;;;1.30;;
78686;SDS011;68002;52.310;6.990;2023-04-26T13:48:39;4.40;;;1.27;;
78686;SDS011;68002;52.310;6.990;2023-04-26T13:51:04;2.70;;;1.17;;
78686;SDS011;68002;52.310;6.990;2023-04-26T13:53:30;3.70;;;1.02;;
78686;SDS011;68002;52.310;6.990;2023-04-26T13:55:55;1.93;;;1.00;;
78686;SDS011;68002;52.310;6.990;2023-04-26T13:58:20;2.43;;;1.10;;
78686;SDS011;68002;52.310;6.990;2023-04-26T14:00:45;3.63;;;1.63;;
78686;SDS011;68002;52.310;6.990;2023-04-26T14:03:11;3.07;;;1.30;;
78686;SDS011;68002;52.310;6.990;2023-04-26T14:05:36;2.70;;;0.97;;
78686;SDS011;68002;52.310;6.990;2023-04-26T14:08:01;6.23;;;1.30;;
78686;SDS011;68002;52.310;6.990;2023-04-26T14:10:26;3.70;;;1.27;;
78686;SDS011;68002;52.310;6.990;2023-04-26T14:12:51;2.87;;;1.27;;
78686;SDS011;68002;52.310;6.990;2023-04-26T14:15:17;4.00;;;1.83;;
78686;SDS011;68002;52.310;6.990;2023-04-26T14:17:42;4.63;;;1.43;;
78686;SDS011;68002;52.310;6.990;2023-04-26T14:20:07;3.13;;;1.30;;
78686;SDS011;68002;52.310;6.990;2023-04-26T14:22:33;2.95;;;1.13;;
78686;SDS011;68002;52.310;6.990;2023-04-26T14:24:58;2.60;;;1.50;;
78686;SDS011;68002;52.310;6.990;2023-04-26T14:27:23;3.87;;;1.43;;
78686;SDS011;68002;52.310;6.990;2023-04-26T14:29:49;4.77;;;1.73;;
78686;SDS011;68002;52.310;6.990;2023-04-26T14:32:14;3.73;;;1.63;;
78686;SDS011;68002;52.310;6.990;2023-04-26T14:34:39;2.13;;;1.13;;
78686;SDS011;68002;52.310;6.990;2023-04-26T14:37:05;3.50;;;1.27;;
78686;SDS011;68002;52.310;6.990;2023-04-26T14:39:30;5.03;;;1.70;;
78686;SDS011;68002;52.310;6.990;2023-04-26T14:41:56;3.75;;;1.15;;
78686;SDS011;68002;52.310;6.990;2023-04-26T14:44:24;2.20;;;1.20;;
78686;SDS011;68002;52.310;6.990;2023-04-26T14:46:49;2.78;;;1.52;;
78686;SDS011;68002;52.310;6.990;2023-04-26T14:49:15;4.20;;;1.45;;
78686;SDS011;68002;52.310;6.990;2023-04-26T14:51:40;4.03;;;1.27;;
78686;SDS011;68002;52.310;6.990;2023-04-26T14:54:05;2.90;;;1.30;;